createdAt,value
2024-05-09T00:01:23.990Z,112.14
2024-05-09T00:02:24.128Z,111.54
2024-05-09T00:03:24.029Z,112.70
2024-05-09T00:04:24.070Z,111.20
2024-05-09T00:05:24.113Z,110.15
2024-05-09T00:06:24.073Z,110.21
2024-05-09T00:07:24.126Z,110.38
2024-05-09T00:08:24.257Z,110.09
2024-05-09T00:09:24.241Z,110.81
2024-05-09T00:10:29.328Z,108.99
2024-05-09T00:11:25.393Z,109.10
2024-05-09T00:12:24.383Z,109.36
2024-05-09T00:13:24.342Z,109.81
2024-05-09T00:14:24.396Z,108.71
2024-05-09T00:15:24.359Z,111.12
2024-05-09T00:16:24.458Z,111.10
2024-05-09T00:17:24.592Z,109.24
2024-05-09T00:18:24.600Z,107.73
2024-05-09T00:19:24.474Z,108.91
2024-05-09T00:20:32.320Z,106.76
2024-05-09T00:21:25.456Z,106.90
2024-05-09T00:22:24.459Z,107.32
2024-05-09T00:23:24.517Z,107.15
2024-05-09T00:24:24.479Z,107.97
2024-05-09T00:25:24.487Z,109.18
2024-05-09T00:26:24.581Z,108.25
2024-05-09T00:27:24.495Z,109.39
2024-05-09T00:28:24.509Z,109.52
2024-05-09T00:29:24.653Z,109.27
2024-05-09T00:30:33.139Z,107.95
2024-05-09T00:31:25.549Z,108.01
2024-05-09T00:32:24.684Z,108.17
2024-05-09T00:33:24.818Z,108.86
2024-05-09T00:34:24.805Z,109.23
2024-05-09T00:35:24.758Z,108.51
2024-05-09T00:36:24.643Z,109.55
2024-05-09T00:37:24.635Z,107.19
2024-05-09T00:38:24.758Z,107.63
2024-05-09T00:39:24.644Z,107.83
2024-05-09T00:40:31.228Z,108.19
2024-05-09T00:41:25.737Z,108.22
2024-05-09T00:42:24.690Z,108.36
2024-05-09T00:43:24.708Z,108.25
2024-05-09T00:44:24.854Z,105.67
2024-05-09T00:45:24.746Z,108.52
2024-05-09T00:46:24.749Z,106.34
2024-05-09T00:47:24.998Z,107.10
2024-05-09T00:48:24.886Z,106.66
2024-05-09T00:49:24.917Z,106.33
2024-05-09T00:50:30.025Z,105.73
2024-05-09T00:51:25.825Z,105.83
2024-05-09T00:52:24.805Z,105.89
2024-05-09T00:53:24.871Z,106.84
2024-05-09T00:54:24.803Z,106.12
2024-05-09T00:55:24.810Z,107.54
2024-05-09T00:56:24.935Z,106.51
2024-05-09T00:57:24.849Z,107.48
2024-05-09T00:58:24.865Z,106.79
2024-05-09T00:59:25.065Z,104.63
2024-05-09T01:00:31.330Z,106.62
2024-05-09T01:01:25.960Z,106.68
2024-05-09T01:02:25.057Z,106.68
2024-05-09T01:03:25.111Z,107.34
2024-05-09T01:04:25.010Z,106.89
2024-05-09T01:05:25.034Z,107.36
2024-05-09T01:06:25.006Z,105.73
2024-05-09T01:07:25.057Z,104.79
2024-05-09T01:08:25.084Z,105.67
2024-05-09T01:09:25.067Z,105.37
2024-05-09T01:10:32.279Z,104.26
2024-05-09T01:11:26.174Z,104.36
2024-05-09T01:12:25.298Z,104.53
2024-05-09T01:13:25.158Z,104.24
2024-05-09T01:14:25.228Z,105.85
2024-05-09T01:15:25.143Z,104.06
2024-05-09T01:16:25.171Z,104.61
2024-05-09T01:17:25.283Z,105.82
2024-05-09T01:18:25.303Z,105.46
2024-05-09T01:19:25.371Z,103.80
2024-05-09T01:20:32.159Z,103.36
2024-05-09T01:21:26.315Z,103.42
2024-05-09T01:22:25.260Z,103.86
2024-05-09T01:23:25.301Z,103.64
2024-05-09T01:24:25.254Z,104.76
2024-05-09T01:25:25.269Z,105.35
2024-05-09T01:26:25.319Z,103.20
2024-05-09T01:27:25.290Z,104.98
2024-05-09T01:28:25.304Z,102.26
2024-05-09T01:29:25.416Z,103.91
2024-05-09T01:30:33.340Z,102.86
2024-05-09T01:31:26.460Z,102.88
2024-05-09T01:32:25.605Z,103.14
2024-05-09T01:33:25.539Z,104.09
2024-05-09T01:34:25.394Z,104.08
2024-05-09T01:35:25.588Z,106.34
2024-05-09T01:36:25.429Z,104.11
2024-05-09T01:37:25.458Z,105.90
2024-05-09T01:38:25.474Z,101.94
2024-05-09T01:39:25.454Z,102.25
2024-05-09T01:40:35.413Z,102.77
2024-05-09T01:41:26.578Z,102.85
2024-05-09T01:42:25.494Z,103.04
2024-05-09T01:43:25.517Z,103.42
2024-05-09T01:44:25.564Z,102.27
2024-05-09T01:45:25.563Z,104.89
2024-05-09T01:46:25.565Z,102.10
2024-05-09T01:47:25.753Z,103.05
2024-05-09T01:48:25.675Z,101.00
2024-05-09T01:49:25.722Z,103.04
2024-05-09T01:50:36.999Z,101.57
2024-05-09T01:51:26.652Z,101.68
2024-05-09T01:52:25.665Z,101.94
2024-05-09T01:53:25.740Z,101.75
2024-05-09T01:54:25.689Z,103.28
2024-05-09T01:55:25.703Z,105.25
2024-05-09T01:56:25.776Z,102.08
2024-05-09T01:57:25.731Z,101.48
2024-05-09T01:58:25.744Z,101.98
2024-05-09T01:59:25.950Z,101.14
2024-05-09T02:00:36.335Z,100.64
2024-05-09T02:01:26.950Z,100.74
2024-05-09T02:02:25.909Z,100.94
2024-05-09T02:03:25.948Z,101.29
2024-05-09T02:04:25.994Z,102.06
2024-05-09T02:05:25.947Z,101.85
2024-05-09T02:06:25.900Z,99.66
2024-05-09T02:07:25.909Z,99.15
2024-05-09T02:08:26.014Z,100.16
2024-05-09T02:09:25.945Z,101.55
2024-05-09T02:10:31.972Z,100.38
2024-05-09T02:11:27.098Z,100.48
2024-05-09T02:12:26.091Z,100.39
2024-05-09T02:13:26.017Z,100.78
2024-05-09T02:14:26.185Z,100.60
2024-05-09T02:15:26.044Z,99.60
2024-05-09T02:16:26.058Z,99.03
2024-05-09T02:17:26.247Z,98.55
2024-05-09T02:18:26.185Z,99.26
2024-05-09T02:19:26.144Z,99.81
2024-05-09T02:20:33.431Z,99.64
2024-05-09T02:21:27.127Z,99.66
2024-05-09T02:22:26.143Z,99.69
2024-05-09T02:23:26.205Z,99.79
2024-05-09T02:24:26.160Z,100.44
2024-05-09T02:25:26.166Z,100.16
2024-05-09T02:26:26.241Z,97.63
2024-05-09T02:27:26.212Z,98.55
2024-05-09T02:28:26.201Z,99.91
2024-05-09T02:29:26.316Z,99.84
2024-05-09T02:30:35.926Z,97.75
2024-05-09T02:31:27.240Z,97.82
2024-05-09T02:32:26.391Z,98.17
2024-05-09T02:33:26.497Z,98.46
2024-05-09T02:34:26.393Z,98.61
2024-05-09T02:35:26.473Z,98.91
2024-05-09T02:36:26.311Z,99.53
2024-05-09T02:37:26.319Z,97.46
2024-05-09T02:38:26.386Z,97.16
2024-05-09T02:39:26.352Z,98.57
2024-05-09T02:40:35.069Z,97.10
2024-05-09T02:41:27.458Z,97.16
2024-05-09T02:42:26.377Z,97.23
2024-05-09T02:43:26.399Z,97.62
2024-05-09T02:44:26.503Z,99.55
2024-05-09T02:45:26.415Z,98.44
2024-05-09T02:46:26.432Z,96.78
2024-05-09T02:47:26.576Z,99.54
2024-05-09T02:48:26.645Z,97.86
2024-05-09T02:49:26.633Z,97.02
2024-05-09T02:50:34.137Z,98.61
2024-05-09T02:51:27.493Z,98.65
2024-05-09T02:52:26.515Z,98.64
2024-05-09T02:53:26.573Z,98.12
2024-05-09T02:54:26.543Z,97.32
2024-05-09T02:55:26.566Z,97.57
2024-05-09T02:56:26.636Z,98.08
2024-05-09T02:57:26.585Z,96.67
2024-05-09T02:58:26.615Z,95.12
2024-05-09T02:59:26.684Z,95.74
2024-05-09T03:00:34.994Z,97.40
2024-05-09T03:01:27.706Z,97.44
2024-05-09T03:02:26.753Z,95.89
2024-05-09T03:03:27.138Z,96.88
2024-05-09T03:04:26.720Z,97.75
2024-05-09T03:05:26.732Z,97.40
2024-05-09T03:06:26.704Z,94.78
2024-05-09T03:07:26.714Z,96.98
2024-05-09T03:08:26.780Z,96.65
2024-05-09T03:09:26.747Z,94.71
2024-05-09T03:10:29.040Z,94.87
2024-05-09T03:11:27.897Z,94.92
2024-05-09T03:12:26.859Z,95.29
2024-05-09T03:13:26.809Z,95.79
2024-05-09T03:14:27.007Z,95.41
2024-05-09T03:15:26.839Z,95.83
2024-05-09T03:16:26.863Z,97.45
2024-05-09T03:17:27.031Z,95.41
2024-05-09T03:18:26.966Z,94.08
2024-05-09T03:19:26.947Z,93.99
2024-05-09T03:20:32.637Z,96.31
2024-05-09T03:21:27.931Z,96.37
2024-05-09T03:22:26.939Z,96.45
2024-05-09T03:23:26.986Z,93.87
2024-05-09T03:24:26.967Z,97.65
2024-05-09T03:25:26.985Z,92.98
2024-05-09T03:26:27.038Z,94.15
2024-05-09T03:27:27.027Z,95.22
2024-05-09T03:28:27.029Z,94.26
2024-05-09T03:29:27.190Z,95.05
2024-05-09T03:30:35.783Z,93.83
2024-05-09T03:31:28.127Z,93.94
2024-05-09T03:32:27.168Z,93.91
2024-05-09T03:33:27.359Z,94.29
2024-05-09T03:34:27.139Z,94.92
2024-05-09T03:35:27.221Z,94.38
2024-05-09T03:36:27.130Z,95.61
2024-05-09T03:37:27.125Z,96.66
2024-05-09T03:38:27.164Z,91.29
2024-05-09T03:39:27.141Z,93.41
2024-05-09T03:40:30.816Z,93.79
2024-05-09T03:41:27.185Z,93.88
2024-05-09T03:42:27.186Z,94.02
2024-05-09T03:43:27.189Z,94.65
2024-05-09T03:44:27.242Z,93.29
2024-05-09T03:45:27.222Z,93.39
2024-05-09T03:46:27.240Z,93.25
2024-05-09T03:47:27.340Z,94.80
2024-05-09T03:48:27.399Z,92.54
2024-05-09T03:49:27.377Z,90.41
2024-05-09T03:50:33.692Z,93.10
2024-05-09T03:51:28.291Z,93.23
2024-05-09T03:52:27.297Z,93.38
2024-05-09T03:53:27.350Z,93.22
2024-05-09T03:54:27.335Z,92.57
2024-05-09T03:55:27.362Z,92.28
2024-05-09T03:56:27.413Z,92.37
2024-05-09T03:57:27.383Z,93.79
2024-05-09T03:58:27.389Z,91.96
2024-05-09T03:59:27.490Z,94.02
2024-05-09T04:00:35.201Z,92.50
2024-05-09T04:01:28.480Z,92.60
2024-05-09T04:02:27.585Z,91.56
2024-05-09T04:03:27.768Z,91.50
2024-05-09T04:04:27.516Z,92.92
2024-05-09T04:05:27.579Z,91.28
2024-05-09T04:06:27.486Z,92.01
2024-05-09T04:07:27.518Z,92.55
2024-05-09T04:08:27.635Z,91.99
2024-05-09T04:09:27.519Z,91.27
2024-05-09T04:10:32.757Z,93.94
2024-05-09T04:11:28.644Z,93.97
2024-05-09T04:12:27.603Z,91.78
2024-05-09T04:13:27.570Z,90.73
2024-05-09T04:14:27.766Z,93.18
2024-05-09T04:15:27.622Z,91.01
2024-05-09T04:16:27.625Z,93.50
2024-05-09T04:17:27.850Z,91.22
2024-05-09T04:18:27.774Z,89.30
2024-05-09T04:19:27.831Z,90.99
2024-05-09T04:20:36.642Z,89.88
2024-05-09T04:21:28.687Z,90.03
2024-05-09T04:22:27.709Z,90.44
2024-05-09T04:23:27.834Z,90.99
2024-05-09T04:24:27.743Z,92.17
2024-05-09T04:25:27.750Z,89.33
2024-05-09T04:26:27.811Z,93.32
2024-05-09T04:27:27.777Z,90.42
2024-05-09T04:28:27.782Z,91.50
2024-05-09T04:29:27.858Z,88.00
2024-05-09T04:30:34.995Z,90.44
2024-05-09T04:31:28.842Z,90.45
2024-05-09T04:32:27.998Z,90.77
2024-05-09T04:33:28.004Z,91.15
2024-05-09T04:34:27.963Z,89.84
2024-05-09T04:35:35.252Z,50.00
2024-05-09T04:36:35.172Z,50.00
2024-05-09T04:37:35.181Z,50.00
2024-05-09T04:38:35.261Z,50.00
2024-05-09T04:39:35.187Z,50.00
2024-05-09T04:40:37.015Z,50.49
2024-05-09T04:41:35.368Z,48.86
2024-05-09T04:42:35.382Z,48.88
2024-05-09T04:43:35.423Z,46.46
2024-05-09T04:44:35.500Z,46.40
2024-05-09T04:45:35.876Z,45.12
2024-05-09T04:46:35.530Z,50.70
2024-05-09T04:47:35.857Z,51.44
2024-05-09T04:48:35.728Z,53.69
2024-05-09T04:49:35.850Z,53.55
2024-05-09T04:50:38.644Z,53.30
2024-05-09T04:51:35.767Z,52.85
2024-05-09T04:52:35.771Z,52.87
2024-05-09T04:53:35.807Z,52.62
2024-05-09T04:54:36.718Z,52.21
2024-05-09T04:55:35.773Z,50.00
2024-05-09T04:56:35.813Z,51.62
2024-05-09T04:57:35.748Z,50.75
2024-05-09T04:58:35.744Z,50.00
2024-05-09T04:59:35.815Z,51.25
2024-05-09T05:00:37.901Z,51.51
2024-05-09T05:01:35.790Z,51.68
2024-05-09T05:02:35.785Z,51.75
2024-05-09T05:03:35.890Z,51.31
2024-05-09T05:04:35.751Z,52.36
2024-05-09T05:05:35.742Z,52.94
2024-05-09T05:06:35.729Z,51.54
2024-05-09T05:07:35.716Z,50.07
2024-05-09T05:08:35.751Z,53.60
2024-05-09T05:09:35.710Z,50.65
2024-05-09T05:10:36.891Z,50.56
2024-05-09T05:11:35.730Z,51.60
2024-05-09T05:12:35.697Z,50.44
2024-05-09T05:13:38.630Z,53.77
2024-05-09T05:14:35.707Z,53.79
2024-05-09T05:15:35.655Z,52.48
2024-05-09T05:16:35.633Z,53.29
2024-05-09T05:17:35.830Z,52.15
2024-05-09T05:18:35.703Z,52.29
2024-05-09T05:19:35.802Z,52.77
2024-05-09T05:20:35.719Z,53.32
2024-05-09T05:21:35.614Z,50.78
2024-05-09T05:22:35.822Z,53.89
2024-05-09T05:23:35.726Z,50.80
2024-05-09T05:24:35.609Z,53.71
2024-05-09T05:25:35.575Z,50.03
2024-05-09T05:26:35.595Z,50.77
2024-05-09T05:27:35.567Z,51.32
2024-05-09T05:28:35.559Z,51.03
2024-05-09T05:29:35.720Z,52.89
2024-05-09T05:30:35.845Z,52.09
2024-05-09T05:31:35.708Z,53.74
2024-05-09T05:32:35.848Z,52.33
2024-05-09T05:33:35.810Z,53.03
2024-05-09T05:34:35.807Z,51.93
2024-05-09T05:35:35.904Z,53.02
2024-05-09T05:36:35.912Z,52.64
2024-05-09T05:37:35.969Z,53.03
2024-05-09T05:38:36.044Z,52.66
2024-05-09T05:39:36.092Z,51.57
2024-05-09T05:40:38.155Z,51.92
2024-05-09T05:41:36.179Z,53.04
2024-05-09T05:42:36.128Z,50.32
2024-05-09T05:43:36.119Z,50.90
2024-05-09T05:44:36.135Z,51.18
2024-05-09T05:45:36.081Z,52.22
2024-05-09T05:46:36.073Z,53.60
2024-05-09T05:47:36.123Z,51.97
2024-05-09T05:48:36.120Z,52.07
2024-05-09T05:49:36.077Z,50.70
2024-05-09T05:50:37.965Z,52.39
2024-05-09T05:51:36.013Z,52.47
2024-05-09T05:52:35.997Z,51.95
2024-05-09T05:53:36.065Z,52.55
2024-05-09T05:54:35.983Z,52.97
2024-05-09T05:55:35.975Z,51.09
2024-05-09T05:56:36.025Z,56.32
2024-05-09T05:57:35.977Z,53.70
2024-05-09T05:58:35.974Z,54.05
2024-05-09T05:59:36.042Z,53.58
2024-05-09T06:00:39.037Z,53.12
2024-05-09T06:01:36.080Z,53.25
2024-05-09T06:02:36.049Z,53.50
2024-05-09T06:03:36.051Z,53.40
2024-05-09T06:04:35.987Z,52.74
2024-05-09T06:05:36.046Z,54.38
2024-05-09T06:06:35.961Z,51.74
2024-05-09T06:07:35.956Z,51.57
2024-05-09T06:08:35.981Z,51.85
2024-05-09T06:09:35.962Z,50.51
2024-05-09T06:10:39.277Z,53.18
2024-05-09T06:11:36.141Z,53.22
2024-05-09T06:12:35.941Z,51.68
2024-05-09T06:13:35.940Z,52.63
2024-05-09T06:14:35.995Z,53.70
2024-05-09T06:15:35.939Z,53.08
2024-05-09T06:16:35.950Z,52.29
2024-05-09T06:17:36.132Z,50.36
2024-05-09T06:18:36.345Z,52.42
2024-05-09T06:19:36.034Z,52.41
2024-05-09T06:20:38.009Z,54.37
2024-05-09T06:21:36.150Z,52.61
2024-05-09T06:22:36.186Z,52.92
2024-05-09T06:23:36.427Z,51.91
2024-05-09T06:24:36.279Z,54.55
2024-05-09T06:25:36.627Z,52.18
2024-05-09T06:26:36.420Z,51.55
2024-05-09T06:27:36.444Z,53.22
2024-05-09T06:28:36.503Z,50.00
2024-05-09T06:29:36.558Z,51.38
2024-05-09T06:30:39.801Z,50.94
2024-05-09T06:31:37.612Z,51.03
2024-05-09T06:32:36.701Z,51.39
2024-05-09T06:33:36.999Z,51.91
2024-05-09T06:34:36.658Z,52.99
2024-05-09T06:35:37.078Z,50.98
2024-05-09T06:36:36.592Z,50.82
2024-05-09T06:37:36.598Z,52.34
2024-05-09T06:38:36.658Z,52.56
2024-05-09T06:39:36.566Z,52.21
2024-05-09T06:40:39.172Z,50.39
2024-05-09T06:41:36.616Z,50.53
2024-05-09T06:42:36.555Z,50.89
2024-05-09T06:43:36.561Z,51.65
2024-05-09T06:44:36.598Z,51.47
2024-05-09T06:45:36.552Z,50.66
2024-05-09T06:46:36.555Z,52.83
2024-05-09T06:47:36.696Z,52.40
2024-05-09T06:48:36.637Z,51.60
2024-05-09T06:49:36.545Z,51.12
2024-05-09T06:50:38.343Z,50.30
2024-05-09T06:51:36.512Z,50.38
2024-05-09T06:52:36.507Z,50.65
2024-05-09T06:53:36.608Z,50.95
2024-05-09T06:54:36.507Z,51.84
2024-05-09T06:55:36.518Z,50.67
2024-05-09T06:56:36.515Z,52.67
2024-05-09T06:57:37.751Z,52.00
2024-05-09T06:58:36.660Z,52.05
2024-05-09T06:59:36.712Z,52.51
2024-05-09T07:00:39.674Z,52.95
2024-05-09T07:01:36.747Z,52.17
2024-05-09T07:02:36.773Z,52.20
2024-05-09T07:03:36.738Z,52.39
2024-05-09T07:04:36.796Z,52.58
2024-05-09T07:05:36.702Z,53.27
2024-05-09T07:06:36.672Z,50.00
2024-05-09T07:07:36.660Z,53.07
2024-05-09T07:08:36.750Z,51.76
2024-05-09T07:09:36.664Z,52.62
2024-05-09T07:10:37.206Z,53.30
2024-05-09T07:11:36.673Z,54.28
2024-05-09T07:12:36.618Z,55.79
2024-05-09T07:13:36.618Z,53.87
2024-05-09T07:14:38.444Z,51.34
2024-05-09T07:15:36.613Z,52.38
2024-05-09T07:16:36.595Z,51.62
2024-05-09T07:17:36.731Z,51.14
2024-05-09T07:18:36.898Z,51.96
2024-05-09T07:19:36.883Z,50.37
2024-05-09T07:20:36.750Z,51.42
2024-05-09T07:21:36.774Z,51.70
2024-05-09T07:22:36.784Z,50.34
2024-05-09T07:23:37.587Z,52.37
2024-05-09T07:24:36.861Z,50.29
2024-05-09T07:25:36.955Z,50.00
2024-05-09T07:26:37.063Z,53.10
2024-05-09T07:27:36.991Z,52.03
2024-05-09T07:28:37.023Z,52.43
2024-05-09T07:29:38.714Z,51.90
2024-05-09T07:30:37.093Z,53.00
2024-05-09T07:31:37.137Z,52.92
2024-05-09T07:32:37.284Z,53.38
2024-05-09T07:33:37.289Z,51.09
2024-05-09T07:34:37.281Z,52.73
2024-05-09T07:35:37.533Z,50.83
2024-05-09T07:36:37.322Z,53.37
2024-05-09T07:37:37.377Z,50.93
2024-05-09T07:38:37.673Z,52.31
2024-05-09T07:39:37.428Z,54.05
2024-05-09T07:40:37.451Z,50.24
2024-05-09T07:41:37.688Z,50.16
2024-05-09T07:42:37.520Z,50.00
2024-05-09T07:43:37.526Z,50.69
2024-05-09T07:44:37.633Z,50.00
2024-05-09T07:45:48.364Z,52.61
2024-05-09T07:47:47.335Z,52.66
2024-05-09T07:48:58.083Z,52.64
2024-05-09T07:53:33.818Z,52.78
2024-05-09T07:53:43.861Z,52.91
2024-05-09T07:54:38.573Z,52.96
2024-05-09T07:55:37.558Z,53.98
2024-05-09T07:56:37.504Z,54.83
2024-05-09T07:57:37.358Z,56.23
2024-05-09T07:58:37.292Z,55.01
2024-05-09T07:59:38.001Z,53.40
2024-05-09T08:00:37.358Z,56.75
2024-05-09T08:01:37.421Z,54.47
2024-05-09T08:02:37.271Z,50.41
2024-05-09T08:03:37.374Z,51.84
2024-05-09T08:04:37.245Z,51.48
2024-05-09T08:05:37.230Z,51.91
2024-05-09T08:06:37.136Z,50.37
2024-05-09T08:07:37.094Z,52.73
2024-05-09T08:08:37.088Z,51.29
2024-05-09T08:09:38.409Z,52.08
2024-05-09T08:10:37.113Z,50.24
2024-05-09T08:11:37.064Z,51.69
2024-05-09T08:12:37.038Z,53.69
2024-05-09T08:13:37.054Z,56.04
2024-05-09T08:14:36.983Z,50.07
2024-05-09T08:15:37.031Z,53.64
2024-05-09T08:16:36.970Z,54.96
2024-05-09T08:17:37.076Z,50.92
2024-05-09T08:18:37.139Z,50.20
2024-05-09T08:19:36.959Z,50.01
2024-05-09T08:20:36.907Z,50.00
2024-05-09T08:21:36.912Z,52.63
2024-05-09T08:22:36.863Z,52.41
2024-05-09T08:23:36.875Z,50.42
2024-05-09T08:24:36.871Z,52.17
2024-05-09T08:25:36.803Z,50.20
2024-05-09T08:26:36.790Z,51.42
2024-05-09T08:27:36.788Z,50.00
2024-05-09T08:28:36.737Z,51.58
2024-05-09T08:29:36.704Z,50.00
2024-05-09T08:30:38.107Z,53.28
2024-05-09T08:31:36.681Z,54.19
2024-05-09T08:32:36.815Z,54.24
2024-05-09T08:33:37.056Z,53.45
2024-05-09T08:34:36.618Z,53.65
2024-05-09T08:35:36.568Z,55.06
2024-05-09T08:36:36.576Z,53.29
2024-05-09T08:37:38.929Z,53.31
2024-05-09T08:38:36.491Z,53.37
2024-05-09T08:39:36.491Z,53.49
2024-05-09T08:40:37.876Z,53.71
2024-05-09T08:41:36.435Z,54.11
2024-05-09T08:42:36.445Z,54.39
2024-05-09T08:43:38.218Z,54.46
2024-05-09T08:44:36.386Z,54.63
2024-05-09T08:45:36.393Z,53.14
2024-05-09T08:46:36.383Z,53.12
2024-05-09T08:47:36.377Z,52.75
2024-05-09T08:48:36.502Z,51.83
2024-05-09T08:49:37.663Z,52.82
2024-05-09T08:50:39.112Z,52.85
2024-05-09T08:51:36.342Z,52.99
2024-05-09T08:52:36.238Z,53.11
2024-05-09T08:53:36.257Z,51.77
2024-05-09T08:54:36.230Z,52.28
2024-05-09T08:55:38.142Z,51.76
2024-05-09T08:56:36.895Z,52.89
2024-05-09T08:57:36.187Z,52.94
2024-05-09T08:58:36.111Z,53.36
2024-05-09T08:59:36.099Z,52.72
2024-05-09T09:00:37.594Z,52.80
2024-05-09T09:01:37.779Z,53.64
2024-05-09T09:02:36.194Z,52.46
2024-05-09T09:03:36.345Z,51.85
2024-05-09T09:04:36.098Z,52.59
2024-05-09T09:05:36.065Z,52.23
2024-05-09T09:06:36.025Z,52.70
2024-05-09T09:07:35.989Z,52.66
2024-05-09T09:08:35.956Z,51.24
2024-05-09T09:09:35.958Z,51.64
2024-05-09T09:10:36.107Z,51.82
2024-05-09T09:11:35.941Z,51.48
2024-05-09T09:12:35.919Z,52.30
2024-05-09T09:13:35.861Z,51.29
2024-05-09T09:14:35.839Z,52.58
2024-05-09T09:15:35.868Z,51.00
2024-05-09T09:16:35.804Z,51.46
2024-05-09T09:17:35.839Z,52.39
2024-05-09T09:18:36.032Z,51.60
2024-05-09T09:19:35.846Z,52.10
2024-05-09T09:20:37.056Z,52.45
2024-05-09T09:21:35.764Z,51.78
2024-05-09T09:22:35.659Z,52.82
2024-05-09T09:23:35.640Z,52.12
2024-05-09T09:24:35.645Z,53.78
2024-05-09T09:25:35.614Z,54.10
2024-05-09T09:26:35.595Z,51.80
2024-05-09T09:27:35.605Z,52.95
2024-05-09T09:28:35.556Z,53.64
2024-05-09T09:29:35.531Z,50.92
2024-05-09T09:30:37.945Z,52.26
2024-05-09T09:31:35.581Z,52.02
2024-05-09T09:32:35.504Z,51.85
2024-05-09T09:33:36.025Z,53.00
2024-05-09T09:34:35.462Z,52.22
2024-05-09T09:35:35.387Z,50.03
2024-05-09T09:36:35.397Z,51.69
2024-05-09T09:37:35.346Z,52.21
2024-05-09T09:38:35.326Z,53.34
2024-05-09T09:39:35.381Z,51.75
2024-05-09T09:40:38.714Z,52.66
2024-05-09T09:41:36.272Z,52.77
2024-05-09T09:42:35.270Z,53.05
2024-05-09T09:43:35.219Z,52.82
2024-05-09T09:44:37.360Z,52.80
2024-05-09T09:45:35.181Z,52.75
2024-05-09T09:46:35.187Z,53.13
2024-05-09T09:47:35.256Z,52.19
2024-05-09T09:48:35.251Z,52.67
2024-05-09T09:49:35.084Z,52.82
2024-05-09T09:50:35.431Z,50.82
2024-05-09T09:51:34.984Z,50.59
2024-05-09T09:52:34.961Z,51.48
2024-05-09T09:53:34.946Z,53.53
2024-05-09T09:54:34.982Z,52.55
2024-05-09T09:55:34.909Z,52.82
2024-05-09T09:56:34.898Z,51.64
2024-05-09T09:57:34.906Z,51.82
2024-05-09T09:58:34.906Z,52.43
2024-05-09T09:59:34.814Z,52.05
2024-05-09T10:00:34.832Z,52.35
2024-05-09T10:01:34.906Z,52.22
2024-05-09T10:02:34.771Z,50.38
2024-05-09T10:03:34.904Z,52.81
2024-05-09T10:04:34.774Z,53.50
2024-05-09T10:05:34.880Z,52.57
2024-05-09T10:06:34.704Z,52.42
2024-05-09T10:07:34.633Z,54.15
2024-05-09T10:08:34.626Z,52.28
2024-05-09T10:09:35.441Z,53.01
2024-05-09T10:10:34.925Z,51.96
2024-05-09T10:11:41.879Z,50.27
2024-05-09T10:12:35.912Z,50.42
2024-05-09T10:13:34.959Z,50.59
2024-05-09T10:14:34.709Z,51.24
2024-05-09T10:15:34.744Z,53.20
2024-05-09T10:16:34.703Z,52.06
2024-05-09T10:17:34.806Z,52.77
2024-05-09T10:18:34.819Z,51.49
2024-05-09T10:19:34.725Z,52.00
2024-05-09T10:20:34.710Z,51.25
2024-05-09T10:21:34.770Z,54.78
2024-05-09T10:22:34.770Z,53.51
2024-05-09T10:23:34.856Z,50.00
2024-05-09T10:24:34.872Z,53.32
2024-05-09T10:25:34.904Z,53.89
2024-05-09T10:26:34.918Z,53.63
2024-05-09T10:27:35.005Z,54.41
2024-05-09T10:28:35.058Z,54.26
2024-05-09T10:29:35.049Z,54.88
2024-05-09T10:30:36.371Z,54.73
2024-05-09T10:31:35.165Z,52.87
2024-05-09T10:32:35.214Z,52.96
2024-05-09T10:33:35.390Z,52.06
2024-05-09T10:34:35.362Z,55.59
2024-05-09T10:35:35.268Z,55.40
2024-05-09T10:36:35.330Z,54.19
2024-05-09T10:37:35.403Z,54.04
2024-05-09T10:38:35.397Z,51.85
2024-05-09T10:39:35.454Z,54.51
2024-05-09T10:40:35.491Z,55.21
2024-05-09T10:41:35.527Z,52.89
2024-05-09T10:42:35.569Z,53.07
2024-05-09T10:43:35.623Z,55.98
2024-05-09T10:44:35.650Z,56.98
2024-05-09T10:45:35.732Z,55.07
2024-05-09T10:46:35.710Z,53.83
2024-05-09T10:47:35.827Z,54.00
2024-05-09T10:48:35.869Z,55.04
2024-05-09T10:49:35.826Z,55.42
2024-05-09T10:50:35.914Z,56.03
2024-05-09T10:51:35.938Z,53.39
2024-05-09T10:52:35.932Z,56.24
2024-05-09T10:53:35.982Z,52.91
2024-05-09T10:54:36.032Z,55.59
2024-05-09T10:55:36.023Z,54.87
2024-05-09T10:56:36.031Z,56.74
2024-05-09T10:57:36.061Z,55.70
2024-05-09T10:58:36.075Z,54.94
2024-05-09T10:59:36.085Z,57.32
2024-05-09T11:00:36.803Z,54.26
2024-05-09T11:01:36.216Z,55.25
2024-05-09T11:02:36.274Z,53.92
2024-05-09T11:03:36.566Z,55.42
2024-05-09T11:04:36.266Z,57.14
2024-05-09T11:05:36.491Z,56.26
2024-05-09T11:06:36.314Z,57.53
2024-05-09T11:07:36.258Z,54.22
2024-05-09T11:08:36.297Z,54.81
2024-05-09T11:09:36.354Z,56.42
2024-05-09T11:10:36.411Z,55.93
2024-05-09T11:11:36.455Z,55.18
2024-05-09T11:12:36.505Z,56.27
2024-05-09T11:13:36.590Z,58.33
2024-05-09T11:14:36.603Z,57.27
2024-05-09T11:15:36.655Z,57.33
2024-05-09T11:16:36.667Z,56.18
2024-05-09T11:17:36.808Z,56.35
2024-05-09T11:18:39.036Z,57.14
2024-05-09T11:19:36.855Z,58.49
2024-05-09T11:20:37.047Z,57.92
2024-05-09T11:21:36.755Z,57.25
2024-05-09T11:22:36.761Z,58.75
2024-05-09T11:23:36.725Z,59.85
2024-05-09T11:24:36.721Z,58.01
2024-05-09T11:25:36.675Z,59.93
2024-05-09T11:26:36.655Z,58.88
2024-05-09T11:27:36.670Z,59.31
2024-05-09T11:28:36.639Z,59.29
2024-05-09T11:29:36.615Z,59.83
2024-05-09T11:30:36.630Z,58.38
2024-05-09T11:31:36.703Z,59.77
2024-05-09T11:32:36.667Z,58.51
2024-05-09T11:33:36.733Z,58.82
2024-05-09T11:34:36.567Z,58.72
2024-05-09T11:35:36.491Z,59.24
2024-05-09T11:36:36.516Z,59.47
2024-05-09T11:37:37.266Z,60.57
2024-05-09T11:38:36.453Z,60.77
2024-05-09T11:39:36.478Z,57.97
2024-05-09T11:40:36.501Z,59.97
2024-05-09T11:41:36.421Z,60.21
2024-05-09T11:42:36.417Z,59.35
2024-05-09T11:43:36.398Z,60.62
2024-05-09T11:44:36.389Z,60.51
2024-05-09T11:45:36.377Z,60.61
2024-05-09T11:46:36.344Z,59.41
2024-05-09T11:47:36.400Z,62.16
2024-05-09T11:48:36.446Z,61.06
2024-05-09T11:49:36.343Z,60.77
2024-05-09T11:50:36.507Z,58.92
2024-05-09T11:51:36.292Z,59.82
2024-05-09T11:52:36.249Z,62.46
2024-05-09T11:53:36.247Z,60.84
2024-05-09T11:54:36.266Z,59.76
2024-05-09T11:55:36.291Z,61.24
2024-05-09T11:56:36.175Z,57.93
2024-05-09T11:57:36.195Z,62.99
2024-05-09T11:58:36.142Z,61.24
2024-05-09T11:59:36.145Z,59.64
2024-05-09T12:00:37.516Z,61.43
2024-05-09T12:01:36.258Z,59.69
2024-05-09T12:02:36.195Z,60.73
2024-05-09T12:03:36.240Z,61.50
2024-05-09T12:04:36.303Z,61.78
2024-05-09T12:05:36.386Z,60.84
2024-05-09T12:06:36.321Z,61.13
2024-05-09T12:07:36.292Z,61.63
2024-05-09T12:08:36.360Z,60.79
2024-05-09T12:09:36.386Z,60.78
2024-05-09T12:10:37.113Z,61.83
2024-05-09T12:11:36.484Z,62.11
2024-05-09T12:12:37.419Z,61.42
2024-05-09T12:13:36.586Z,62.87
2024-05-09T12:14:36.562Z,61.31
2024-05-09T12:15:37.644Z,62.77
2024-05-09T12:16:36.723Z,60.79
2024-05-09T12:17:36.741Z,63.37
2024-05-09T12:18:36.723Z,62.58
2024-05-09T12:19:36.775Z,61.49
2024-05-09T12:20:39.381Z,60.38
2024-05-09T12:21:36.768Z,61.88
2024-05-09T12:22:36.716Z,62.04
2024-05-09T12:23:36.693Z,61.50
2024-05-09T12:24:36.719Z,61.95
2024-05-09T12:25:36.655Z,63.21
2024-05-09T12:26:36.637Z,62.57
2024-05-09T12:27:36.694Z,62.88
2024-05-09T12:28:36.619Z,62.62
2024-05-09T12:29:38.810Z,60.97
2024-05-09T12:30:39.662Z,63.94
2024-05-09T12:31:36.621Z,64.01
2024-05-09T12:32:36.631Z,64.05
2024-05-09T12:33:36.657Z,63.62
2024-05-09T12:34:36.611Z,64.21
2024-05-09T12:35:36.590Z,62.99
2024-05-09T12:36:36.551Z,61.53
2024-05-09T12:37:36.501Z,64.97
2024-05-09T12:38:36.487Z,63.48
2024-05-09T12:39:36.502Z,62.29
2024-05-09T12:40:38.547Z,62.03
2024-05-09T12:41:36.424Z,63.89
2024-05-09T12:42:36.450Z,64.04
2024-05-09T12:43:36.433Z,64.10
2024-05-09T12:44:36.365Z,63.50
2024-05-09T12:45:36.476Z,62.25
2024-05-09T12:46:36.347Z,63.90
2024-05-09T12:47:36.378Z,64.55
2024-05-09T12:48:36.522Z,63.14
2024-05-09T12:49:36.455Z,62.01
2024-05-09T12:50:36.903Z,62.86
2024-05-09T12:51:36.336Z,63.71
2024-05-09T12:52:36.245Z,63.54
2024-05-09T12:53:36.237Z,62.77